Time;durP1;ratioP1;P1;durP2;ratioP2;P2;SDS_P1;SDS_P2;PMS_P1;PMS_P2;Temp;Humidity;BMP_temperature;BMP_pressure;BME280_temperature;BME280_humidity;BME280_pressure;Samples;Min_cycle;Max_cycle;Signal;HPM_P1;HPM_P2
2023/04/26 00:01:15;;;;;;;;;;;19.70;47.40;;;;;;5086161;28;43011;-76
2023/04/26 00:03:41;;;;;;;;;;;19.70;46.70;;;;;;5085402;27;43554;-76
2023/04/26 00:06:08;;;;;;;;;;;19.70;47.20;;;;;;5085994;27;42925;-76
2023/04/26 00:08:34;;;;;;;;;;;19.70;47.00;;;;;;5085797;27;43556;-77
2023/04/26 00:11:00;;;;;;;;;;;19.60;46.40;;;;;;5085933;27;43004;-76
2023/04/26 00:13:25;;;;;;;;;;;19.60;46.40;;;;;;5085872;28;43433;-75
2023/04/26 00:15:51;;;;;;;;;;;19.60;46.30;;;;;;5085604;28;43658;-76
2023/04/26 00:18:16;;;;;;;;;;;19.60;46.30;;;;;;5085561;28;42974;-76
2023/04/26 00:20:42;;;;;;;;;;;19.60;46.30;;;;;;5077350;28;44153;-76
2023/04/26 00:23:10;;;;;;;;;;;19.60;46.20;;;;;;5064016;28;43408;-76
2023/04/26 00:25:36;;;;;;;;;;;19.60;46.20;;;;;;5065499;28;43006;-77
2023/04/26 00:28:02;;;;;;;;;;;19.60;46.20;;;;;;5064770;28;43548;-76
2023/04/26 00:30:28;;;;;;;;;;;19.60;46.70;;;;;;5065277;28;42968;-76
2023/04/26 00:32:53;;;;;;;;;;;19.60;46.00;;;;;;5064671;28;42916;-77
2023/04/26 00:35:19;;;;;;;;;;;19.60;45.80;;;;;;5064601;28;42989;-77
2023/04/26 00:37:45;;;;;;;;;;;19.60;46.40;;;;;;5063469;28;42944;-76
2023/04/26 00:40:11;;;;;;;;;;;19.60;46.50;;;;;;5064596;28;42945;-76
2023/04/26 00:42:37;;;;;;;;;;;19.60;46.50;;;;;;5062070;28;42937;-77
2023/04/26 00:45:02;;;;;;;;;;;19.50;46.00;;;;;;5064133;28;42853;-76
2023/04/26 00:47:28;;;;;;;;;;;19.60;45.90;;;;;;5064855;28;43569;-76
2023/04/26 00:49:54;;;;;;;;;;;19.50;45.90;;;;;;5064920;28;42959;-77
2023/04/26 00:52:20;;;;;;;;;;;19.60;45.90;;;;;;5064340;28;43446;-79
2023/04/26 00:54:47;;;;;;;;;;;19.60;45.80;;;;;;5064694;28;42929;-77
2023/04/26 00:57:13;;;;;;;;;;;19.60;45.80;;;;;;5064427;28;42964;-77
2023/04/26 00:59:38;;;;;;;;;;;19.60;46.20;;;;;;5064404;28;42924;-76
2023/04/26 01:02:04;;;;;;;;;;;19.60;45.90;;;;;;5064492;28;43945;-76
2023/04/26 01:04:30;;;;;;;;;;;19.60;45.60;;;;;;5065099;28;42871;-76
2023/04/26 01:06:55;;;;;;;;;;;19.40;45.60;;;;;;5064470;28;43428;-75
2023/04/26 01:09:21;;;;;;;;;;;19.60;45.60;;;;;;5064149;28;42906;-76
2023/04/26 01:11:47;;;;;;;;;;;19.50;45.50;;;;;;5064472;28;44106;-76
2023/04/26 01:14:13;;;;;;;;;;;19.50;45.20;;;;;;5064512;28;43019;-77
2023/04/26 01:16:45;;;;;;;;;;;19.50;45.20;;;;;;5063783;28;42914;-76
2023/04/26 01:19:11;;;;;;;;;;;19.50;45.20;;;;;;5064357;28;42907;-76
2023/04/26 01:21:37;;;;;;;;;;;19.60;45.20;;;;;;5067424;28;43310;-76
2023/04/26 01:24:03;;;;;;;;;;;19.60;45.10;;;;;;5067931;28;42875;-79
2023/04/26 01:26:30;;;;;;;;;;;19.50;44.90;;;;;;5067710;28;42945;-76
2023/04/26 01:28:55;;;;;;;;;;;19.50;44.80;;;;;;5067473;28;42918;-76
2023/04/26 01:31:21;;;;;;;;;;;19.50;44.80;;;;;;5067683;28;43199;-76
2023/04/26 01:33:46;;;;;;;;;;;19.50;44.80;;;;;;5067557;28;42771;-76
2023/04/26 01:36:12;;;;;;;;;;;19.60;45.40;;;;;;5067899;28;43551;-77
2023/04/26 01:38:37;;;;;;;;;;;19.60;45.70;;;;;;5067522;28;43069;-78
2023/04/26 01:41:03;;;;;;;;;;;19.60;45.10;;;;;;5067671;28;43336;-82
2023/04/26 01:43:28;;;;;;;;;;;19.60;45.20;;;;;;5067297;28;43001;-76
2023/04/26 01:45:54;;;;;;;;;;;19.50;45.00;;;;;;5067265;28;42917;-79
2023/04/26 01:48:19;;;;;;;;;;;19.60;45.20;;;;;;5067406;28;42854;-76
2023/04/26 01:50:45;;;;;;;;;;;19.50;44.80;;;;;;5067086;28;42923;-77
2023/04/26 01:53:11;;;;;;;;;;;19.50;44.60;;;;;;5065598;28;42971;-79
2023/04/26 01:55:36;;;;;;;;;;;19.60;44.50;;;;;;5067057;28;43498;-83
2023/04/26 01:58:02;;;;;;;;;;;19.60;44.50;;;;;;5067903;28;42945;-82
2023/04/26 02:00:28;;;;;;;;;;;;;;;;;;5067279;28;42926;-80
2023/04/26 02:02:54;;;;;;;;;;;19.60;44.40;;;;;;5067652;28;42878;-79
2023/04/26 02:05:19;;;;;;;;;;;19.50;44.40;;;;;;5067332;28;42758;-77
2023/04/26 02:07:45;;;;;;;;;;;19.50;44.30;;;;;;5067373;28;42955;-77
2023/04/26 02:10:10;;;;;;;;;;;19.60;44.50;;;;;;5067565;28;43104;-76
2023/04/26 02:12:36;;;;;;;;;;;19.60;44.60;;;;;;5067383;28;42897;-75
2023/04/26 02:15:02;;;;;;;;;;;19.50;45.10;;;;;;5067363;28;42976;-76
2023/04/26 02:17:28;;;;;;;;;;;19.50;44.40;;;;;;5066503;28;42828;-83
2023/04/26 02:19:53;;;;;;;;;;;19.60;44.50;;;;;;5066284;28;43137;-83
2023/04/26 02:22:20;;;;;;;;;;;19.60;44.40;;;;;;5066411;28;42974;-84
2023/04/26 02:24:46;;;;;;;;;;;19.50;44.30;;;;;;5066457;28;43550;-84
2023/04/26 02:27:11;;;;;;;;;;;19.50;44.30;;;;;;5066740;28;42936;-83
2023/04/26 02:29:37;;;;;;;;;;;19.50;44.30;;;;;;5066595;28;43070;-82
2023/04/26 02:32:03;;;;;;;;;;;19.50;44.30;;;;;;5065562;28;43534;-83
2023/04/26 02:34:28;;;;;;;;;;;19.50;44.80;;;;;;5066830;28;43694;-80
2023/04/26 02:36:54;;;;;;;;;;;19.50;44.20;;;;;;5066826;28;43007;-83
2023/04/26 02:39:20;;;;;;;;;;;19.50;44.40;;;;;;5064678;28;43595;-83
2023/04/26 02:41:45;;;;;;;;;;;19.50;44.20;;;;;;5064784;28;42878;-82
2023/04/26 02:44:11;;;;;;;;;;;19.50;44.20;;;;;;5065970;28;43015;-83
2023/04/26 02:46:36;;;;;;;;;;;19.50;44.00;;;;;;5066729;28;42951;-82
2023/04/26 02:49:02;;;;;;;;;;;19.50;44.00;;;;;;5066658;28;43055;-83
2023/04/26 02:51:27;;;;;;;;;;;19.50;44.40;;;;;;5066894;28;43069;-82
2023/04/26 02:53:53;;;;;;;;;;;19.50;44.30;;;;;;5066737;28;43867;-82
2023/04/26 02:56:18;;;;;;;;;;;19.50;44.20;;;;;;5066864;28;42870;-83
2023/04/26 02:58:45;;;;;;;;;;;19.50;44.70;;;;;;5066177;28;43525;-83
2023/04/26 03:01:12;;;;;;;;;;;19.50;44.00;;;;;;5065489;28;42979;-82
2023/04/26 03:03:37;;;;;;;;;;;19.50;44.10;;;;;;5066241;28;43064;-77
2023/04/26 03:06:03;;;;;;;;;;;19.40;44.10;;;;;;5064525;28;43061;-82
2023/04/26 03:08:28;;;;;;;;;;;19.50;44.30;;;;;;5065863;28;43477;-79
2023/04/26 03:10:54;;;;;;;;;;;19.40;44.80;;;;;;5066259;28;42957;-77
2023/04/26 03:13:21;;;;;;;;;;;19.30;44.30;;;;;;5065858;28;43363;-77
2023/04/26 03:15:48;;;;;;;;;;;19.50;44.30;;;;;;5066236;28;42920;-81
2023/04/26 03:18:14;;;;;;;;;;;19.50;44.30;;;;;;5065954;28;44373;-78
2023/04/26 03:20:40;;;;;;;;;;;19.50;44.20;;;;;;5065764;28;43065;-81
2023/04/26 03:23:06;;;;;;;;;;;19.50;44.20;;;;;;5066347;28;43296;-78
2023/04/26 03:25:32;;;;;;;;;;;19.50;44.80;;;;;;5066328;28;42833;-76
2023/04/26 03:27:57;;;;;;;;;;;19.50;44.20;;;;;;5065309;28;42993;-81
2023/04/26 03:30:23;;;;;;;;;;;19.40;44.70;;;;;;5065498;28;43023;-77
2023/04/26 03:32:49;;;;;;;;;;;19.40;44.10;;;;;;5065590;28;43469;-81
2023/04/26 03:35:14;;;;;;;;;;;19.30;44.20;;;;;;5066141;28;43038;-78
2023/04/26 03:37:40;;;;;;;;;;;19.40;44.30;;;;;;5066402;28;42761;-80
2023/04/26 03:40:07;;;;;;;;;;;19.40;44.30;;;;;;5066058;28;42970;-78
2023/04/26 03:42:32;;;;;;;;;;;19.40;44.40;;;;;;5065541;28;43920;-76
2023/04/26 03:44:58;;;;;;;;;;;19.40;44.20;;;;;;5069174;28;43028;-80
2023/04/26 03:47:23;;;;;;;;;;;19.40;44.10;;;;;;5085698;28;42956;-76
2023/04/26 03:49:49;;;;;;;;;;;19.40;44.70;;;;;;5086133;28;42712;-77
2023/04/26 03:52:15;;;;;;;;;;;19.40;44.10;;;;;;5085244;28;43081;-81
2023/04/26 03:54:41;;;;;;;;;;;19.40;44.40;;;;;;5085690;27;42918;-79
2023/04/26 03:57:06;;;;;;;;;;;19.40;44.30;;;;;;5085896;28;42869;-77
2023/04/26 03:59:32;;;;;;;;;;;19.40;44.50;;;;;;5085685;28;43016;-78
2023/04/26 04:01:57;;;;;;;;;;;19.40;44.50;;;;;;5085862;28;43452;-77
2023/04/26 04:04:23;;;;;;;;;;;19.40;44.40;;;;;;5085860;28;42951;-78
2023/04/26 04:06:48;;;;;;;;;;;19.40;44.20;;;;;;5085802;28;43556;-77
2023/04/26 04:09:14;;;;;;;;;;;19.40;44.30;;;;;;5085710;28;42867;-77
2023/04/26 04:11:40;;;;;;;;;;;19.40;44.20;;;;;;5085768;28;42825;-83
2023/04/26 04:14:06;;;;;;;;;;;19.40;44.10;;;;;;5085725;27;43007;-77
2023/04/26 04:16:32;;;;;;;;;;;;;;;;;;5085939;27;42763;-77
2023/04/26 04:18:57;;;;;;;;;;;19.40;44.50;;;;;;5085386;27;43053;-78
2023/04/26 04:21:23;;;;;;;;;;;19.40;44.10;;;;;;5077519;28;43643;-79
2023/04/26 04:23:49;;;;;;;;;;;19.40;44.00;;;;;;5071771;28;42866;-73
2023/04/26 04:26:15;;;;;;;;;;;19.40;44.60;;;;;;5080435;28;43400;-79
2023/04/26 04:28:40;;;;;;;;;;;19.40;43.90;;;;;;5085129;27;43104;-78
2023/04/26 04:31:08;;;;;;;;;;;19.30;43.70;;;;;;5084523;28;43157;-78
2023/04/26 04:33:34;;;;;;;;;;;19.40;43.60;;;;;;5083323;28;43024;-76
2023/04/26 04:36:00;;;;;;;;;;;19.40;44.00;;;;;;5082172;27;42946;-78
2023/04/26 04:38:25;;;;;;;;;;;19.40;43.40;;;;;;5086210;27;43038;-78
2023/04/26 04:40:51;;;;;;;;;;;19.30;43.30;;;;;;5084920;28;43359;-81
2023/04/26 04:43:16;;;;;;;;;;;19.30;43.50;;;;;;5083945;27;42948;-82
2023/04/26 04:45:42;;;;;;;;;;;19.40;44.00;;;;;;5082550;28;43504;-84
2023/04/26 04:48:08;;;;;;;;;;;19.40;43.90;;;;;;5080376;27;42916;-82
2023/04/26 04:50:34;;;;;;;;;;;19.40;44.10;;;;;;5083799;27;43194;-83
2023/04/26 04:53:00;;;;;;;;;;;19.30;43.30;;;;;;5079838;27;43014;-82
2023/04/26 04:55:25;;;;;;;;;;;19.40;42.90;;;;;;5086404;27;43355;-83
2023/04/26 04:57:51;;;;;;;;;;;19.30;42.70;;;;;;5088221;27;42972;-81
2023/04/26 05:00:17;;;;;;;;;;;19.30;42.70;;;;;;5082781;28;43332;-80
2023/04/26 05:02:42;;;;;;;;;;;19.30;42.40;;;;;;5086197;27;42994;-80
2023/04/26 05:05:09;;;;;;;;;;;19.30;42.40;;;;;;5078948;28;43480;-82
2023/04/26 05:07:35;;;;;;;;;;;19.30;42.40;;;;;;5088663;27;42917;-81
2023/04/26 05:10:01;;;;;;;;;;;19.20;42.00;;;;;;5088382;27;43190;-81
2023/04/26 05:12:27;;;;;;;;;;;19.10;41.40;;;;;;5086799;27;42897;-80
2023/04/26 05:14:53;;;;;;;;;;;;;;;;;;5086168;28;45201;-80
2023/04/26 05:17:18;;;;;;;;;;;19.00;40.60;;;;;;5087362;28;42927;-81
2023/04/26 05:19:44;;;;;;;;;;;;;;;;;;5086203;27;43817;-79
2023/04/26 05:22:11;;;;;;;;;;;18.90;40.40;;;;;;5086052;28;42893;-81
2023/04/26 05:24:37;;;;;;;;;;;18.90;40.20;;;;;;5081960;27;43566;-80
2023/04/26 05:27:03;;;;;;;;;;;18.90;40.30;;;;;;5087325;28;43115;-81
2023/04/26 05:29:29;;;;;;;;;;;18.90;40.20;;;;;;5087785;27;43483;-81
2023/04/26 05:31:55;;;;;;;;;;;18.90;40.20;;;;;;5095525;27;43026;-81
2023/04/26 05:34:22;;;;;;;;;;;18.90;40.10;;;;;;5086916;27;43220;-81
2023/04/26 05:36:47;;;;;;;;;;;18.80;40.00;;;;;;5085610;27;43026;-81
2023/04/26 05:39:12;;;;;;;;;;;18.90;40.00;;;;;;5088484;27;42941;-81
2023/04/26 05:41:38;;;;;;;;;;;18.90;40.00;;;;;;5086703;28;43040;-85
2023/04/26 05:44:03;;;;;;;;;;;18.90;40.10;;;;;;5086512;28;43008;-79
2023/04/26 05:46:29;;;;;;;;;;;;;;;;;;5085685;28;43407;-79
2023/04/26 05:48:55;;;;;;;;;;;18.90;40.10;;;;;;5082408;28;42898;-81
2023/04/26 05:51:21;;;;;;;;;;;18.90;40.20;;;;;;5083068;27;43016;-80
2023/04/26 05:53:46;;;;;;;;;;;18.90;40.00;;;;;;5081627;28;43023;-79
2023/04/26 05:56:12;;;;;;;;;;;18.90;40.00;;;;;;5084869;28;43071;-80
2023/04/26 05:58:37;;;;;;;;;;;18.90;40.00;;;;;;5085234;28;42994;-80
2023/04/26 06:01:03;;;;;;;;;;;18.90;39.80;;;;;;5082211;28;43114;-80
2023/04/26 06:03:28;;;;;;;;;;;18.80;39.80;;;;;;5086463;28;43340;-83
2023/04/26 06:05:54;;;;;;;;;;;18.90;40.00;;;;;;5085945;27;43051;-81
2023/04/26 06:08:20;;;;;;;;;;;18.90;40.20;;;;;;5087115;28;43086;-82
2023/04/26 06:10:45;;;;;;;;;;;18.90;40.30;;;;;;5084400;28;42976;-80
2023/04/26 06:13:11;;;;;;;;;;;18.90;39.80;;;;;;5086814;27;43370;-81
2023/04/26 06:15:37;;;;;;;;;;;18.90;39.40;;;;;;5086980;27;42868;-80
2023/04/26 06:18:03;;;;;;;;;;;18.90;39.30;;;;;;5086662;28;42955;-82
2023/04/26 06:20:29;;;;;;;;;;;19.00;39.10;;;;;;5086717;27;43078;-79
2023/04/26 06:22:54;;;;;;;;;;;19.00;39.10;;;;;;5086724;28;42948;-82
2023/04/26 06:25:20;;;;;;;;;;;;;;;;;;5087234;28;42909;-80
2023/04/26 06:27:48;;;;;;;;;;;19.00;38.80;;;;;;5083616;28;43077;-82
2023/04/26 06:30:14;;;;;;;;;;;19.00;38.70;;;;;;5086812;28;43381;-82
2023/04/26 06:32:40;;;;;;;;;;;19.00;38.90;;;;;;5085818;27;44458;-81
2023/04/26 06:35:06;;;;;;;;;;;19.00;38.40;;;;;;5083253;28;42958;-81
2023/04/26 06:37:31;;;;;;;;;;;19.00;38.20;;;;;;5086174;27;43004;-82
2023/04/26 06:39:57;;;;;;;;;;;19.00;38.30;;;;;;5086672;28;42790;-82
2023/04/26 06:42:22;;;;;;;;;;;19.00;38.50;;;;;;5087056;28;43710;-82
2023/04/26 06:44:48;;;;;;;;;;;19.00;38.30;;;;;;5086433;28;43577;-82
2023/04/26 06:47:13;;;;;;;;;;;19.00;37.80;;;;;;5086777;28;43054;-81
2023/04/26 06:49:39;;;;;;;;;;;19.00;37.70;;;;;;5086549;28;42922;-82
2023/04/26 06:52:05;;;;;;;;;;;19.00;37.00;;;;;;5086365;28;43013;-82
2023/04/26 06:54:31;;;;;;;;;;;19.00;37.10;;;;;;5086918;27;42977;-82
2023/04/26 06:56:57;;;;;;;;;;;19.00;37.90;;;;;;5085068;27;44154;-82
2023/04/26 06:59:23;;;;;;;;;;;;;;;;;;5086640;28;42927;-81
2023/04/26 07:01:48;;;;;;;;;;;19.00;38.30;;;;;;5085521;28;43628;-82
2023/04/26 07:04:15;;;;;;;;;;;19.00;39.50;;;;;;5086699;28;43003;-82
2023/04/26 07:06:41;;;;;;;;;;;19.00;39.90;;;;;;5080620;27;43590;-82
2023/04/26 07:09:07;;;;;;;;;;;19.00;39.80;;;;;;5084521;28;42986;-81
2023/04/26 07:11:33;;;;;;;;;;;19.00;40.40;;;;;;5085401;27;43736;-79
2023/04/26 07:13:58;;;;;;;;;;;19.00;41.00;;;;;;5084995;28;42812;-82
2023/04/26 07:16:25;;;;;;;;;;;19.00;41.00;;;;;;5065403;28;43535;-81
2023/04/26 07:18:56;;;;;;;;;;;19.10;41.00;;;;;;5068788;28;43143;-82
2023/04/26 07:21:22;;;;;;;;;;;19.00;41.30;;;;;;5085419;27;43345;-82
2023/04/26 07:23:48;;;;;;;;;;;19.10;41.30;;;;;;5078853;27;43015;-80
2023/04/26 07:26:13;;;;;;;;;;;19.10;40.90;;;;;;5074612;28;43536;-80
2023/04/26 07:28:45;;;;;;;;;;;19.10;40.80;;;;;;5076753;28;42953;-81
2023/04/26 07:31:11;;;;;;;;;;;19.10;40.40;;;;;;5076016;28;43554;-78
2023/04/26 07:33:37;;;;;;;;;;;19.10;40.30;;;;;;5082696;27;42996;-80
2023/04/26 07:36:03;;;;;;;;;;;19.10;40.30;;;;;;5085375;27;43378;-80
2023/04/26 07:38:28;;;;;;;;;;;19.10;40.30;;;;;;5086592;27;42800;-81
2023/04/26 07:40:54;;;;;;;;;;;19.00;40.40;;;;;;5086314;28;43918;-81
2023/04/26 07:43:19;;;;;;;;;;;19.10;40.60;;;;;;5086097;28;42843;-80
2023/04/26 07:45:45;;;;;;;;;;;19.10;40.80;;;;;;5085253;28;42994;-80
2023/04/26 07:48:10;;;;;;;;;;;19.10;41.00;;;;;;5085843;28;42909;-80
2023/04/26 07:50:36;;;;;;;;;;;;;;;;;;5085696;28;43855;-81
2023/04/26 07:53:02;;;;;;;;;;;;;;;;;;5086616;28;42847;-80
2023/04/26 07:55:28;;;;;;;;;;;19.20;41.30;;;;;;5086490;28;44132;-80
2023/04/26 07:57:53;;;;;;;;;;;19.10;41.10;;;;;;5086752;27;43202;-80
2023/04/26 08:00:21;;;;;;;;;;;19.20;41.10;;;;;;5085937;28;43492;-80
2023/04/26 08:02:46;;;;;;;;;;;19.20;41.30;;;;;;5086222;27;42992;-80
2023/04/26 08:05:12;;;;;;;;;;;19.20;41.50;;;;;;5085717;27;42894;-80
2023/04/26 08:07:38;;;;;;;;;;;;;;;;;;5084426;28;43119;-80
2023/04/26 08:10:04;;;;;;;;;;;19.20;41.10;;;;;;5085783;28;42916;-80
2023/04/26 08:12:30;;;;;;;;;;;19.20;41.10;;;;;;5084340;28;43175;-80
2023/04/26 08:14:55;;;;;;;;;;;19.20;40.90;;;;;;5086165;27;42940;-80
2023/04/26 08:17:21;;;;;;;;;;;19.20;41.30;;;;;;5085755;28;42862;-80
2023/04/26 08:19:46;;;;;;;;;;;19.20;41.60;;;;;;5085355;28;43086;-81
2023/04/26 08:22:12;;;;;;;;;;;19.20;41.80;;;;;;5086093;28;43004;-81
2023/04/26 08:24:37;;;;;;;;;;;19.20;41.70;;;;;;5086073;28;42994;-80
2023/04/26 08:27:03;;;;;;;;;;;19.20;41.80;;;;;;5085854;27;43026;-80
2023/04/26 08:29:29;;;;;;;;;;;19.20;41.90;;;;;;5085487;28;42954;-81
2023/04/26 08:31:54;;;;;;;;;;;19.20;41.90;;;;;;5085565;28;42963;-80
2023/04/26 08:34:20;;;;;;;;;;;19.20;42.00;;;;;;5084030;28;45689;-81
2023/04/26 08:36:45;;;;;;;;;;;19.20;42.20;;;;;;5084276;28;43032;-80
2023/04/26 08:39:11;;;;;;;;;;;19.20;42.10;;;;;;5085118;27;42887;-80
2023/04/26 08:41:44;;;;;;;;;;;19.20;42.10;;;;;;5085742;27;42957;-80
2023/04/26 08:44:10;;;;;;;;;;;19.20;42.30;;;;;;5084770;27;43028;-80
2023/04/26 08:46:56;;;;;;;;;;;19.20;42.40;;;;;;5085976;28;43216;-80
2023/04/26 08:49:29;;;;;;;;;;;19.20;42.50;;;;;;5083771;28;43123;-79
2023/04/26 08:51:56;;;;;;;;;;;19.10;42.30;;;;;;5084898;28;43063;-80
2023/04/26 08:54:22;;;;;;;;;;;19.20;42.50;;;;;;5082900;28;45694;-80
2023/04/26 08:56:47;;;;;;;;;;;19.20;42.60;;;;;;5085099;28;43214;-79
2023/04/26 08:59:14;;;;;;;;;;;19.20;42.60;;;;;;5084300;28;43671;-80
2023/04/26 09:01:40;;;;;;;;;;;19.20;42.60;;;;;;5084624;27;42995;-79
2023/04/26 09:04:06;;;;;;;;;;;19.20;42.70;;;;;;5084837;27;43747;-80
2023/04/26 09:06:32;;;;;;;;;;;19.20;42.70;;;;;;5084814;28;42944;-79
2023/04/26 09:08:59;;;;;;;;;;;19.20;42.70;;;;;;5085091;27;43613;-80
2023/04/26 09:11:24;;;;;;;;;;;19.20;42.60;;;;;;5085352;27;42969;-80
2023/04/26 09:13:51;;;;;;;;;;;19.20;42.50;;;;;;5084535;27;43273;-80
2023/04/26 09:16:16;;;;;;;;;;;19.20;42.10;;;;;;5084783;27;42886;-81
2023/04/26 09:18:50;;;;;;;;;;;19.20;41.90;;;;;;5084445;28;42893;-80
2023/04/26 09:21:18;;;;;;;;;;;19.20;42.20;;;;;;5084667;27;43023;-81
2023/04/26 09:23:56;;;;;;;;;;;19.20;42.50;;;;;;5084901;27;42788;-80
2023/04/26 09:26:21;;;;;;;;;;;19.20;42.60;;;;;;5084774;27;42999;-81
2023/04/26 09:28:47;;;;;;;;;;;19.20;42.70;;;;;;5084804;28;42976;-79
2023/04/26 09:31:22;;;;;;;;;;;19.20;42.70;;;;;;5084987;27;42978;-80
2023/04/26 09:33:58;;;;;;;;;;;19.30;42.90;;;;;;5083944;27;43864;-80
2023/04/26 09:36:23;;;;;;;;;;;19.20;42.80;;;;;;5085150;28;42933;-80
2023/04/26 09:38:49;;;;;;;;;;;19.30;42.90;;;;;;5084469;28;43515;-80
2023/04/26 09:41:14;;;;;;;;;;;19.30;42.90;;;;;;5085601;27;43062;-81
2023/04/26 09:43:40;;;;;;;;;;;19.30;42.90;;;;;;5087741;28;42968;-80
2023/04/26 09:46:06;;;;;;;;;;;;;;;;;;5088424;27;42991;-80
2023/04/26 09:48:33;;;;;;;;;;;19.30;43.00;;;;;;5088161;28;44197;-80
2023/04/26 09:51:08;;;;;;;;;;;19.30;43.00;;;;;;5088264;27;42960;-80
2023/04/26 09:53:38;;;;;;;;;;;19.30;43.10;;;;;;5087541;27;42934;-80
2023/04/26 09:56:10;;;;;;;;;;;19.30;43.10;;;;;;5088363;27;43485;-81
2023/04/26 09:58:37;;;;;;;;;;;19.30;43.20;;;;;;5087814;28;43818;-80
2023/04/26 10:01:03;;;;;;;;;;;19.30;43.30;;;;;;5088207;27;42984;-79
2023/04/26 10:03:31;;;;;;;;;;;19.30;43.30;;;;;;5087709;28;42948;-81
2023/04/26 10:05:56;;;;;;;;;;;19.30;43.30;;;;;;5087424;27;42778;-80
2023/04/26 10:08:22;;;;;;;;;;;19.30;43.40;;;;;;5087226;28;42964;-82
2023/04/26 10:10:48;;;;;;;;;;;;;;;;;;5087328;27;43143;-80
2023/04/26 10:13:14;;;;;;;;;;;;;;;;;;5087304;28;43300;-80
2023/04/26 10:15:40;;;;;;;;;;;;;;;;;;5087503;28;43014;-80
2023/04/26 10:18:05;;;;;;;;;;;19.30;43.60;;;;;;5087708;28;43926;-81
2023/04/26 10:20:31;;;;;;;;;;;19.20;43.50;;;;;;5087650;27;42964;-81
2023/04/26 10:23:01;;;;;;;;;;;19.30;43.60;;;;;;5087163;28;43959;-82
2023/04/26 10:25:33;;;;;;;;;;;19.30;43.50;;;;;;5087775;27;43087;-80
2023/04/26 10:27:59;;;;;;;;;;;19.30;43.50;;;;;;5087133;27;43649;-81
2023/04/26 10:30:25;;;;;;;;;;;19.30;43.60;;;;;;5087094;27;42935;-80
2023/04/26 10:32:50;;;;;;;;;;;19.30;43.70;;;;;;5085655;28;44271;-81
2023/04/26 10:35:17;;;;;;;;;;;19.30;43.60;;;;;;5087131;28;43024;-81
2023/04/26 10:37:58;;;;;;;;;;;19.30;43.70;;;;;;5087465;27;43402;-81
2023/04/26 10:40:28;;;;;;;;;;;19.30;43.50;;;;;;5086912;28;42968;-81
2023/04/26 10:43:08;;;;;;;;;;;19.40;43.40;;;;;;5087390;27;43456;-80
2023/04/26 10:45:34;;;;;;;;;;;;;;;;;;5087359;27;43048;-81
2023/04/26 10:48:16;;;;;;;;;;;19.40;43.40;;;;;;5086881;27;42877;-80
2023/04/26 10:51:00;;;;;;;;;;;19.40;43.30;;;;;;5086451;27;42968;-81
2023/04/26 10:53:28;;;;;;;;;;;19.40;43.40;;;;;;5085690;27;43058;-80
2023/04/26 10:55:54;;;;;;;;;;;19.30;43.30;;;;;;5087170;28;43022;-80
2023/04/26 10:58:26;;;;;;;;;;;19.30;43.40;;;;;;5087198;28;43159;-80
2023/04/26 11:01:05;;;;;;;;;;;19.40;43.60;;;;;;5087260;27;42965;-82
2023/04/26 11:03:30;;;;;;;;;;;19.40;43.70;;;;;;5087086;28;42842;-81
2023/04/26 11:05:56;;;;;;;;;;;19.40;43.70;;;;;;5087322;28;42968;-82
2023/04/26 11:08:29;;;;;;;;;;;19.30;43.70;;;;;;5086650;27;43313;-81
2023/04/26 11:11:04;;;;;;;;;;;19.40;43.40;;;;;;5086678;28;42869;-82
2023/04/26 11:13:30;;;;;;;;;;;19.40;43.40;;;;;;5086883;27;43551;-82
2023/04/26 11:16:02;;;;;;;;;;;19.20;43.50;;;;;;5087103;27;42941;-81
2023/04/26 11:18:28;;;;;;;;;;;19.40;43.70;;;;;;5086312;27;42949;-82
2023/04/26 11:20:54;;;;;;;;;;;19.40;43.80;;;;;;5086480;27;42991;-82
2023/04/26 11:23:21;;;;;;;;;;;19.40;43.80;;;;;;5086534;27;43835;-82
2023/04/26 11:25:47;;;;;;;;;;;19.40;43.80;;;;;;5086805;27;43316;-81
2023/04/26 11:28:15;;;;;;;;;;;19.40;43.70;;;;;;5085629;27;64543;-81
2023/04/26 11:30:40;;;;;;;;;;;19.40;43.50;;;;;;5086671;27;42956;-81
2023/04/26 11:33:15;;;;;;;;;;;19.40;43.40;;;;;;5086439;28;43003;-81
2023/04/26 11:35:40;;;;;;;;;;;19.40;43.50;;;;;;5086053;28;42934;-80
2023/04/26 11:38:06;;;;;;;;;;;19.40;43.60;;;;;;5086062;28;42941;-81
2023/04/26 11:40:32;;;;;;;;;;;19.40;43.50;;;;;;5086111;27;43151;-81
2023/04/26 11:42:58;;;;;;;;;;;;;;;;;;5086531;27;43914;-81
2023/04/26 11:45:24;;;;;;;;;;;19.40;43.70;;;;;;5086426;27;43083;-81
2023/04/26 11:47:50;;;;;;;;;;;19.40;43.90;;;;;;5086335;28;43052;-80
2023/04/26 11:50:16;;;;;;;;;;;19.40;44.00;;;;;;5086032;27;43185;-81
2023/04/26 11:52:41;;;;;;;;;;;19.40;44.00;;;;;;5086207;27;43670;-81
2023/04/26 11:55:09;;;;;;;;;;;19.40;44.10;;;;;;5086087;27;42940;-80
2023/04/26 11:57:34;;;;;;;;;;;19.40;44.10;;;;;;5086010;27;42896;-81
2023/04/26 12:00:00;;;;;;;;;;;;;;;;;;5084594;28;43094;-81
2023/04/26 12:02:26;;;;;;;;;;;19.40;44.10;;;;;;5085885;28;43865;-81
2023/04/26 12:04:57;;;;;;;;;;;19.40;44.20;;;;;;5085637;28;43015;-81
2023/04/26 12:07:22;;;;;;;;;;;19.40;44.10;;;;;;5086148;27;42839;-81
2023/04/26 12:09:48;;;;;;;;;;;19.40;43.90;;;;;;5086170;28;43022;-81
2023/04/26 12:12:14;;;;;;;;;;;19.40;44.00;;;;;;5085898;28;43721;-81
2023/04/26 12:14:39;;;;;;;;;;;19.40;44.10;;;;;;5085268;28;42979;-81
2023/04/26 12:17:06;;;;;;;;;;;19.40;44.00;;;;;;5085270;28;43356;-80
2023/04/26 12:19:39;;;;;;;;;;;19.40;44.10;;;;;;5085197;27;42995;-81
2023/04/26 12:22:05;;;;;;;;;;;19.40;44.10;;;;;;5085612;27;43212;-81
2023/04/26 12:24:36;;;;;;;;;;;19.40;44.30;;;;;;5085843;27;42932;-81
2023/04/26 12:27:03;;;;;;;;;;;19.40;44.20;;;;;;5085565;28;43012;-81
2023/04/26 12:29:54;;;;;;;;;;;19.50;44.20;;;;;;5085140;27;43019;-82
2023/04/26 12:32:23;;;;;;;;;;;;;;;;;;4985925;28;45022;-81
2023/04/26 12:34:51;;;;;;;;;;;19.40;44.00;;;;;;4986581;28;43203;-81
2023/04/26 12:37:17;;;;;;;;;;;19.50;44.00;;;;;;5002521;28;43467;-82
2023/04/26 12:39:43;;;;;;;;;;;19.50;44.20;;;;;;5002339;28;43003;-81
2023/04/26 12:42:09;;;;;;;;;;;19.40;44.10;;;;;;5002181;28;43840;-82
2023/04/26 12:44:35;;;;;;;;;;;19.40;44.10;;;;;;5002574;28;43382;-81
2023/04/26 12:47:04;;;;;;;;;;;19.40;44.00;;;;;;4985872;28;44382;-81
2023/04/26 12:49:30;;;;;;;;;;;19.50;44.00;;;;;;5002651;28;42829;-81
2023/04/26 12:51:58;;;;;;;;;;;19.50;44.00;;;;;;5002510;28;43006;-81
2023/04/26 12:54:24;;;;;;;;;;;19.40;43.90;;;;;;5002079;28;43039;-81
2023/04/26 12:56:49;;;;;;;;;;;19.50;43.90;;;;;;4984761;28;45127;-80
2023/04/26 12:59:15;;;;;;;;;;;19.50;43.90;;;;;;5002700;28;42830;-81
2023/04/26 13:01:41;;;;;;;;;;;19.40;44.00;;;;;;5002442;28;43209;-80
2023/04/26 13:04:06;;;;;;;;;;;19.40;44.00;;;;;;5002534;28;42883;-80
2023/04/26 13:06:32;;;;;;;;;;;19.40;44.00;;;;;;5002159;28;43427;-80
2023/04/26 13:08:57;;;;;;;;;;;19.40;44.00;;;;;;5036679;28;43141;-81
2023/04/26 13:11:25;;;;;;;;;;;19.30;43.90;;;;;;5084839;28;42775;-80
2023/04/26 13:13:51;;;;;;;;;;;19.40;44.00;;;;;;5085103;27;42924;-81
2023/04/26 13:16:17;;;;;;;;;;;;;;;;;;5086177;27;43337;-80
2023/04/26 13:18:42;;;;;;;;;;;19.40;43.90;;;;;;5088430;28;42900;-80
2023/04/26 13:21:08;;;;;;;;;;;19.50;43.90;;;;;;5088303;28;42939;-81
2023/04/26 13:23:33;;;;;;;;;;;19.50;44.00;;;;;;5087979;28;43035;-80
2023/04/26 13:25:59;;;;;;;;;;;19.50;44.10;;;;;;5087827;28;42971;-80
2023/04/26 13:28:24;;;;;;;;;;;19.40;44.00;;;;;;5088088;28;42947;-81
2023/04/26 13:30:51;;;;;;;;;;;19.50;44.10;;;;;;5088373;28;43676;-80
2023/04/26 13:33:16;;;;;;;;;;;19.50;44.10;;;;;;5086649;28;43042;-81
2023/04/26 13:35:42;;;;;;;;;;;19.50;44.10;;;;;;5088181;28;43709;-81
2023/04/26 13:38:07;;;;;;;;;;;19.50;44.00;;;;;;5088610;27;43213;-81
2023/04/26 13:40:33;;;;;;;;;;;19.50;44.00;;;;;;5087653;28;43411;-81
2023/04/26 13:42:58;;;;;;;;;;;19.50;44.00;;;;;;5087828;28;42948;-81
2023/04/26 13:45:24;;;;;;;;;;;19.50;44.00;;;;;;5087028;28;43680;-81
2023/04/26 13:47:50;;;;;;;;;;;19.50;44.00;;;;;;5087903;27;42992;-81
2023/04/26 13:50:15;;;;;;;;;;;19.40;43.90;;;;;;5087457;28;43833;-81
2023/04/26 13:52:41;;;;;;;;;;;19.50;44.00;;;;;;5087073;28;42921;-80
2023/04/26 13:55:07;;;;;;;;;;;19.50;44.00;;;;;;5087386;27;43562;-81
2023/04/26 13:57:33;;;;;;;;;;;19.50;44.00;;;;;;5087684;27;42949;-81
2023/04/26 13:59:58;;;;;;;;;;;19.40;44.00;;;;;;5085768;28;44912;-80
2023/04/26 14:02:24;;;;;;;;;;;19.50;44.00;;;;;;5087515;28;43014;-81
2023/04/26 14:04:50;;;;;;;;;;;19.40;44.00;;;;;;5087622;27;43349;-80
2023/04/26 14:07:16;;;;;;;;;;;19.50;44.00;;;;;;5087547;27;43098;-80
2023/04/26 14:09:41;;;;;;;;;;;19.50;44.10;;;;;;5087313;27;42856;-80
2023/04/26 14:12:07;;;;;;;;;;;19.50;44.10;;;;;;5087559;28;43112;-79
2023/04/26 14:14:32;;;;;;;;;;;19.50;44.20;;;;;;5087649;28;42940;-80
2023/04/26 14:16:58;;;;;;;;;;;19.40;44.10;;;;;;5087984;28;42911;-81
2023/04/26 14:19:25;;;;;;;;;;;19.50;44.20;;;;;;5083610;27;42960;-78